sensor_id;sensor_type;location;lat;lon;timestamp;temperature;humidity
9949;DHT22;5013;51.840;8.276;2024-01-25T00:00:00;8.80;1.00
9949;DHT22;5013;51.840;8.276;2024-01-25T00:02:26;8.80;1.00
9949;DHT22;5013;51.840;8.276;2024-01-25T00:04:52;8.80;1.00
9949;DHT22;5013;51.840;8.276;2024-01-25T00:07:17;8.70;1.00
9949;DHT22;5013;51.840;8.276;2024-01-25T00:09:43;8.70;1.00
9949;DHT22;5013;51.840;8.276;2024-01-25T00:12:08;8.70;1.00
9949;DHT22;5013;51.840;8.276;2024-01-25T00:14:34;8.70;1.00
9949;DHT22;5013;51.840;8.276;2024-01-25T00:16:59;8.70;1.00
9949;DHT22;5013;51.840;8.276;2024-01-25T00:19:25;8.70;1.00
9949;DHT22;5013;51.840;8.276;2024-01-25T00:21:50;8.70;1.00
9949;DHT22;5013;51.840;8.276;2024-01-25T00:24:16;8.70;1.00
9949;DHT22;5013;51.840;8.276;2024-01-25T00:26:41;8.60;1.00
9949;DHT22;5013;51.840;8.276;2024-01-25T00:29:07;8.60;1.00
9949;DHT22;5013;51.840;8.276;2024-01-25T00:31:32;8.70;1.00
9949;DHT22;5013;51.840;8.276;2024-01-25T00:33:58;8.60;34.00
9949;DHT22;5013;51.840;8.276;2024-01-25T00:36:25;8.60;31.80
9949;DHT22;5013;51.840;8.276;2024-01-25T00:38:51;8.60;99.90
9949;DHT22;5013;51.840;8.276;2024-01-25T00:41:17;8.60;99.90
9949;DHT22;5013;51.840;8.276;2024-01-25T00:43:45;8.60;1.00
9949;DHT22;5013;51.840;8.276;2024-01-25T00:46:11;8.60;99.90
9949;DHT22;5013;51.840;8.276;2024-01-25T00:48:37;8.60;1.00
9949;DHT22;5013;51.840;8.276;2024-01-25T00:51:07;8.50;1.00
9949;DHT22;5013;51.840;8.276;2024-01-25T00:53:33;8.50;1.00
9949;DHT22;5013;51.840;8.276;2024-01-25T00:55:59;8.40;67.50
9949;DHT22;5013;51.840;8.276;2024-01-25T00:58:25;8.40;99.90
9949;DHT22;5013;51.840;8.276;2024-01-25T01:00:51;8.40;99.90
9949;DHT22;5013;51.840;8.276;2024-01-25T01:03:18;8.40;99.90
9949;DHT22;5013;51.840;8.276;2024-01-25T01:05:44;8.40;49.20
9949;DHT22;5013;51.840;8.276;2024-01-25T01:08:11;8.40;16.10
9949;DHT22;5013;51.840;8.276;2024-01-25T01:10:37;8.40;1.00
9949;DHT22;5013;51.840;8.276;2024-01-25T01:13:02;8.40;30.40
9949;DHT22;5013;51.840;8.276;2024-01-25T01:15:28;8.40;1.00
9949;DHT22;5013;51.840;8.276;2024-01-25T01:17:53;8.40;1.00
9949;DHT22;5013;51.840;8.276;2024-01-25T01:20:19;8.40;1.00
9949;DHT22;5013;51.840;8.276;2024-01-25T01:22:45;8.40;1.00
9949;DHT22;5013;51.840;8.276;2024-01-25T01:25:10;8.40;1.00
9949;DHT22;5013;51.840;8.276;2024-01-25T01:27:36;8.40;1.00
9949;DHT22;5013;51.840;8.276;2024-01-25T01:30:02;8.40;1.00
9949;DHT22;5013;51.840;8.276;2024-01-25T01:32:28;8.40;1.00
9949;DHT22;5013;51.840;8.276;2024-01-25T01:34:53;8.30;1.00
9949;DHT22;5013;51.840;8.276;2024-01-25T01:37:19;8.30;1.00
9949;DHT22;5013;51.840;8.276;2024-01-25T01:39:44;8.40;1.00
9949;DHT22;5013;51.840;8.276;2024-01-25T01:42:10;8.30;1.00
9949;DHT22;5013;51.840;8.276;2024-01-25T01:44:35;8.30;1.00
9949;DHT22;5013;51.840;8.276;2024-01-25T01:47:01;8.20;1.00
9949;DHT22;5013;51.840;8.276;2024-01-25T01:49:27;8.20;24.20
9949;DHT22;5013;51.840;8.276;2024-01-25T01:51:52;8.20;13.20
9949;DHT22;5013;51.840;8.276;2024-01-25T01:54:18;8.10;97.20
9949;DHT22;5013;51.840;8.276;2024-01-25T01:56:44;8.10;99.90
9949;DHT22;5013;51.840;8.276;2024-01-25T01:59:10;8.10;99.90
9949;DHT22;5013;51.840;8.276;2024-01-25T02:01:37;8.00;1.00
9949;DHT22;5013;51.840;8.276;2024-01-25T02:04:04;7.90;1.00
9949;DHT22;5013;51.840;8.276;2024-01-25T02:06:30;7.90;1.00
9949;DHT22;5013;51.840;8.276;2024-01-25T02:08:55;7.90;1.00
9949;DHT22;5013;51.840;8.276;2024-01-25T02:11:24;7.80;29.50
9949;DHT22;5013;51.840;8.276;2024-01-25T02:13:49;7.70;99.90
9949;DHT22;5013;51.840;8.276;2024-01-25T02:16:15;7.70;99.90
9949;DHT22;5013;51.840;8.276;2024-01-25T02:18:41;7.70;99.90
9949;DHT22;5013;51.840;8.276;2024-01-25T02:21:07;7.70;99.90
9949;DHT22;5013;51.840;8.276;2024-01-25T02:23:33;7.70;1.00
9949;DHT22;5013;51.840;8.276;2024-01-25T02:25:59;7.70;99.90
9949;DHT22;5013;51.840;8.276;2024-01-25T02:28:24;7.60;99.90
9949;DHT22;5013;51.840;8.276;2024-01-25T02:30:50;7.60;99.90
9949;DHT22;5013;51.840;8.276;2024-01-25T02:33:15;7.60;99.90
9949;DHT22;5013;51.840;8.276;2024-01-25T02:35:41;7.60;99.90
9949;DHT22;5013;51.840;8.276;2024-01-25T02:38:07;7.60;99.90
9949;DHT22;5013;51.840;8.276;2024-01-25T02:40:32;7.50;1.00
9949;DHT22;5013;51.840;8.276;2024-01-25T02:42:58;7.50;1.00
9949;DHT22;5013;51.840;8.276;2024-01-25T02:45:23;7.50;1.00
9949;DHT22;5013;51.840;8.276;2024-01-25T02:47:49;7.40;1.00
9949;DHT22;5013;51.840;8.276;2024-01-25T02:50:15;7.40;46.90
9949;DHT22;5013;51.840;8.276;2024-01-25T02:52:41;7.40;1.00
9949;DHT22;5013;51.840;8.276;2024-01-25T02:55:07;7.30;99.90
9949;DHT22;5013;51.840;8.276;2024-01-25T02:57:33;7.30;99.90
9949;DHT22;5013;51.840;8.276;2024-01-25T02:59:58;7.30;99.90
9949;DHT22;5013;51.840;8.276;2024-01-25T03:02:24;7.30;99.90
9949;DHT22;5013;51.840;8.276;2024-01-25T03:04:50;7.20;99.90
9949;DHT22;5013;51.840;8.276;2024-01-25T03:07:15;7.20;1.00
9949;DHT22;5013;51.840;8.276;2024-01-25T03:09:41;7.30;99.90
9949;DHT22;5013;51.840;8.276;2024-01-25T03:12:07;7.20;99.90
9949;DHT22;5013;51.840;8.276;2024-01-25T03:14:32;7.30;99.90
9949;DHT22;5013;51.840;8.276;2024-01-25T03:16:58;7.40;99.50
9949;DHT22;5013;51.840;8.276;2024-01-25T03:19:24;7.40;1.00
9949;DHT22;5013;51.840;8.276;2024-01-25T03:21:51;7.40;1.00
9949;DHT22;5013;51.840;8.276;2024-01-25T03:24:16;7.40;1.00
9949;DHT22;5013;51.840;8.276;2024-01-25T03:26:42;7.40;1.00
9949;DHT22;5013;51.840;8.276;2024-01-25T03:29:07;7.40;1.00
9949;DHT22;5013;51.840;8.276;2024-01-25T03:31:33;7.40;99.90
9949;DHT22;5013;51.840;8.276;2024-01-25T03:33:59;7.40;1.00
9949;DHT22;5013;51.840;8.276;2024-01-25T03:36:25;7.40;1.00
9949;DHT22;5013;51.840;8.276;2024-01-25T03:38:51;7.30;1.00
9949;DHT22;5013;51.840;8.276;2024-01-25T03:41:16;7.20;1.00
9949;DHT22;5013;51.840;8.276;2024-01-25T03:43:42;7.20;41.60
9949;DHT22;5013;51.840;8.276;2024-01-25T03:46:07;7.10;99.90
9949;DHT22;5013;51.840;8.276;2024-01-25T03:48:33;7.10;99.90
9949;DHT22;5013;51.840;8.276;2024-01-25T03:50:58;7.10;99.90
9949;DHT22;5013;51.840;8.276;2024-01-25T03:53:24;7.00;1.00
9949;DHT22;5013;51.840;8.276;2024-01-25T03:55:49;7.00;99.90
9949;DHT22;5013;51.840;8.276;2024-01-25T03:58:17;6.90;1.00
9949;DHT22;5013;51.840;8.276;2024-01-25T04:00:43;6.90;1.00
9949;DHT22;5013;51.840;8.276;2024-01-25T04:03:10;6.80;1.00
9949;DHT22;5013;51.840;8.276;2024-01-25T04:05:36;6.80;36.80
9949;DHT22;5013;51.840;8.276;2024-01-25T04:08:01;6.80;13.40
9949;DHT22;5013;51.840;8.276;2024-01-25T04:10:27;6.80;68.40
9949;DHT22;5013;51.840;8.276;2024-01-25T04:12:52;6.80;1.00
9949;DHT22;5013;51.840;8.276;2024-01-25T04:15:18;6.80;36.00
9949;DHT22;5013;51.840;8.276;2024-01-25T04:17:44;6.90;36.80
9949;DHT22;5013;51.840;8.276;2024-01-25T04:20:10;6.90;1.00
9949;DHT22;5013;51.840;8.276;2024-01-25T04:22:36;6.90;1.00
9949;DHT22;5013;51.840;8.276;2024-01-25T04:25:02;6.90;99.90
9949;DHT22;5013;51.840;8.276;2024-01-25T04:27:27;7.00;99.90
9949;DHT22;5013;51.840;8.276;2024-01-25T04:29:53;7.00;99.90
9949;DHT22;5013;51.840;8.276;2024-01-25T04:32:18;6.90;99.90
9949;DHT22;5013;51.840;8.276;2024-01-25T04:34:44;6.90;99.90
9949;DHT22;5013;51.840;8.276;2024-01-25T04:37:11;6.90;99.90
9949;DHT22;5013;51.840;8.276;2024-01-25T04:39:37;6.90;99.90
9949;DHT22;5013;51.840;8.276;2024-01-25T04:42:02;6.90;46.80
9949;DHT22;5013;51.840;8.276;2024-01-25T04:44:28;6.90;1.00
9949;DHT22;5013;51.840;8.276;2024-01-25T04:46:53;6.80;99.90
9949;DHT22;5013;51.840;8.276;2024-01-25T04:49:20;6.80;97.30
9949;DHT22;5013;51.840;8.276;2024-01-25T04:51:45;6.80;45.70
9949;DHT22;5013;51.840;8.276;2024-01-25T04:54:11;6.80;99.90
9949;DHT22;5013;51.840;8.276;2024-01-25T04:56:38;6.70;99.90
9949;DHT22;5013;51.840;8.276;2024-01-25T04:59:04;6.60;1.00
9949;DHT22;5013;51.840;8.276;2024-01-25T05:01:29;6.60;1.00
9949;DHT22;5013;51.840;8.276;2024-01-25T05:03:55;6.60;99.90
9949;DHT22;5013;51.840;8.276;2024-01-25T05:06:20;6.50;99.90
9949;DHT22;5013;51.840;8.276;2024-01-25T05:08:46;6.50;1.00
9949;DHT22;5013;51.840;8.276;2024-01-25T05:11:12;6.40;1.00
9949;DHT22;5013;51.840;8.276;2024-01-25T05:13:37;6.40;1.00
9949;DHT22;5013;51.840;8.276;2024-01-25T05:16:03;6.30;1.00
9949;DHT22;5013;51.840;8.276;2024-01-25T05:18:29;6.30;79.80
9949;DHT22;5013;51.840;8.276;2024-01-25T05:20:54;6.30;99.90
9949;DHT22;5013;51.840;8.276;2024-01-25T05:23:20;6.20;1.00
9949;DHT22;5013;51.840;8.276;2024-01-25T05:25:45;6.20;1.00
9949;DHT22;5013;51.840;8.276;2024-01-25T05:28:11;6.20;1.00
9949;DHT22;5013;51.840;8.276;2024-01-25T05:30:36;6.10;1.00
9949;DHT22;5013;51.840;8.276;2024-01-25T05:33:02;6.10;1.00
9949;DHT22;5013;51.840;8.276;2024-01-25T05:35:27;6.10;99.90
9949;DHT22;5013;51.840;8.276;2024-01-25T05:37:53;6.00;99.90
9949;DHT22;5013;51.840;8.276;2024-01-25T05:40:19;6.00;99.90
9949;DHT22;5013;51.840;8.276;2024-01-25T05:42:44;6.00;1.00
9949;DHT22;5013;51.840;8.276;2024-01-25T05:45:10;5.90;1.00
9949;DHT22;5013;51.840;8.276;2024-01-25T05:47:36;5.90;1.00
9949;DHT22;5013;51.840;8.276;2024-01-25T05:50:01;5.90;29.50
9949;DHT22;5013;51.840;8.276;2024-01-25T05:52:27;5.90;73.30
9949;DHT22;5013;51.840;8.276;2024-01-25T05:54:54;5.90;99.90
9949;DHT22;5013;51.840;8.276;2024-01-25T05:57:20;5.90;99.90
9949;DHT22;5013;51.840;8.276;2024-01-25T05:59:46;5.90;1.00
9949;DHT22;5013;51.840;8.276;2024-01-25T06:02:11;5.80;1.00
9949;DHT22;5013;51.840;8.276;2024-01-25T06:04:37;5.80;99.90
9949;DHT22;5013;51.840;8.276;2024-01-25T06:07:03;5.80;99.90
9949;DHT22;5013;51.840;8.276;2024-01-25T06:09:29;5.70;99.90
9949;DHT22;5013;51.840;8.276;2024-01-25T06:11:54;5.70;99.90
9949;DHT22;5013;51.840;8.276;2024-01-25T06:14:20;5.70;1.00
9949;DHT22;5013;51.840;8.276;2024-01-25T06:16:45;5.70;1.00
9949;DHT22;5013;51.840;8.276;2024-01-25T06:19:11;5.70;1.00
9949;DHT22;5013;51.840;8.276;2024-01-25T06:21:37;5.70;99.90
9949;DHT22;5013;51.840;8.276;2024-01-25T06:24:06;5.70;1.00
9949;DHT22;5013;51.840;8.276;2024-01-25T06:26:32;5.70;1.00
9949;DHT22;5013;51.840;8.276;2024-01-25T06:28:58;5.60;1.00
9949;DHT22;5013;51.840;8.276;2024-01-25T06:31:26;5.60;1.00
9949;DHT22;5013;51.840;8.276;2024-01-25T06:33:52;5.60;1.00
9949;DHT22;5013;51.840;8.276;2024-01-25T06:36:21;5.60;1.00
9949;DHT22;5013;51.840;8.276;2024-01-25T06:38:47;5.60;1.00
9949;DHT22;5013;51.840;8.276;2024-01-25T06:41:12;5.50;1.00
9949;DHT22;5013;51.840;8.276;2024-01-25T06:43:38;5.50;1.00
9949;DHT22;5013;51.840;8.276;2024-01-25T06:46:06;5.40;1.00
9949;DHT22;5013;51.840;8.276;2024-01-25T06:48:32;5.50;1.00
9949;DHT22;5013;51.840;8.276;2024-01-25T06:50:57;5.50;1.00
9949;DHT22;5013;51.840;8.276;2024-01-25T06:53:23;5.50;1.00
9949;DHT22;5013;51.840;8.276;2024-01-25T06:55:48;5.50;1.00
9949;DHT22;5013;51.840;8.276;2024-01-25T06:58:14;5.40;1.00
9949;DHT22;5013;51.840;8.276;2024-01-25T07:00:39;5.40;2.40
9949;DHT22;5013;51.840;8.276;2024-01-25T07:03:08;5.40;33.70
9949;DHT22;5013;51.840;8.276;2024-01-25T07:05:33;5.40;74.50
9949;DHT22;5013;51.840;8.276;2024-01-25T07:07:59;5.40;15.50
9949;DHT22;5013;51.840;8.276;2024-01-25T07:10:25;5.30;76.90
9949;DHT22;5013;51.840;8.276;2024-01-25T07:12:51;5.40;99.00
9949;DHT22;5013;51.840;8.276;2024-01-25T07:15:17;5.30;91.20
9949;DHT22;5013;51.840;8.276;2024-01-25T07:17:43;5.30;99.90
9949;DHT22;5013;51.840;8.276;2024-01-25T07:20:09;5.30;99.90
9949;DHT22;5013;51.840;8.276;2024-01-25T07:22:35;5.30;99.90
9949;DHT22;5013;51.840;8.276;2024-01-25T07:25:00;5.30;99.90
9949;DHT22;5013;51.840;8.276;2024-01-25T07:27:26;5.30;84.10
9949;DHT22;5013;51.840;8.276;2024-01-25T07:29:51;5.30;58.20
9949;DHT22;5013;51.840;8.276;2024-01-25T07:32:18;5.30;99.90
9949;DHT22;5013;51.840;8.276;2024-01-25T07:34:44;5.30;99.90
9949;DHT22;5013;51.840;8.276;2024-01-25T07:37:09;5.20;99.90
9949;DHT22;5013;51.840;8.276;2024-01-25T07:39:36;5.30;99.90
9949;DHT22;5013;51.840;8.276;2024-01-25T07:42:02;5.30;99.90
9949;DHT22;5013;51.840;8.276;2024-01-25T07:44:28;5.30;99.90
9949;DHT22;5013;51.840;8.276;2024-01-25T07:46:53;5.30;99.90
9949;DHT22;5013;51.840;8.276;2024-01-25T07:49:19;5.30;99.90
9949;DHT22;5013;51.840;8.276;2024-01-25T07:51:44;5.30;99.90
9949;DHT22;5013;51.840;8.276;2024-01-25T07:54:10;5.40;99.10
9949;DHT22;5013;51.840;8.276;2024-01-25T07:56:36;5.40;42.20
9949;DHT22;5013;51.840;8.276;2024-01-25T07:59:01;5.40;6.60
9949;DHT22;5013;51.840;8.276;2024-01-25T08:01:27;5.50;1.00
9949;DHT22;5013;51.840;8.276;2024-01-25T08:03:52;5.40;1.00
9949;DHT22;5013;51.840;8.276;2024-01-25T08:06:18;5.50;1.00
9949;DHT22;5013;51.840;8.276;2024-01-25T08:08:43;5.50;1.00
9949;DHT22;5013;51.840;8.276;2024-01-25T08:11:09;5.50;1.00
9949;DHT22;5013;51.840;8.276;2024-01-25T08:13:34;5.50;1.00
9949;DHT22;5013;51.840;8.276;2024-01-25T08:16:00;5.50;1.00
9949;DHT22;5013;51.840;8.276;2024-01-25T08:18:25;5.70;1.00
9949;DHT22;5013;51.840;8.276;2024-01-25T08:20:54;5.60;1.00
9949;DHT22;5013;51.840;8.276;2024-01-25T08:23:20;5.60;1.00
9949;DHT22;5013;51.840;8.276;2024-01-25T08:25:46;5.70;1.00
9949;DHT22;5013;51.840;8.276;2024-01-25T08:28:11;5.60;99.90
9949;DHT22;5013;51.840;8.276;2024-01-25T08:30:37;5.70;99.90
9949;DHT22;5013;51.840;8.276;2024-01-25T08:33:02;5.70;99.90
9949;DHT22;5013;51.840;8.276;2024-01-25T08:35:29;5.80;99.90
9949;DHT22;5013;51.840;8.276;2024-01-25T08:37:55;5.80;99.90
9949;DHT22;5013;51.840;8.276;2024-01-25T08:40:21;5.90;1.00
9949;DHT22;5013;51.840;8.276;2024-01-25T08:42:47;5.90;1.00
9949;DHT22;5013;51.840;8.276;2024-01-25T08:45:12;5.90;1.00
9949;DHT22;5013;51.840;8.276;2024-01-25T08:47:39;6.00;1.00
9949;DHT22;5013;51.840;8.276;2024-01-25T08:50:04;6.10;1.00
9949;DHT22;5013;51.840;8.276;2024-01-25T08:52:36;6.10;19.00
9949;DHT22;5013;51.840;8.276;2024-01-25T08:55:02;6.10;99.90
9949;DHT22;5013;51.840;8.276;2024-01-25T08:57:28;6.10;88.50
9949;DHT22;5013;51.840;8.276;2024-01-25T08:59:54;6.10;99.90
9949;DHT22;5013;51.840;8.276;2024-01-25T09:02:20;6.20;99.90
9949;DHT22;5013;51.840;8.276;2024-01-25T09:04:47;6.30;1.00
9949;DHT22;5013;51.840;8.276;2024-01-25T09:07:13;6.30;1.00
9949;DHT22;5013;51.840;8.276;2024-01-25T09:09:38;6.40;99.90
9949;DHT22;5013;51.840;8.276;2024-01-25T09:12:04;6.50;1.00
9949;DHT22;5013;51.840;8.276;2024-01-25T09:14:30;6.60;1.00
9949;DHT22;5013;51.840;8.276;2024-01-25T09:16:57;6.70;99.90
9949;DHT22;5013;51.840;8.276;2024-01-25T09:19:23;6.70;1.00
9949;DHT22;5013;51.840;8.276;2024-01-25T09:21:48;6.70;1.00
9949;DHT22;5013;51.840;8.276;2024-01-25T09:24:14;6.80;1.00
9949;DHT22;5013;51.840;8.276;2024-01-25T09:26:39;6.80;99.90
9949;DHT22;5013;51.840;8.276;2024-01-25T09:29:05;6.80;1.00
9949;DHT22;5013;51.840;8.276;2024-01-25T09:31:30;6.80;1.00
9949;DHT22;5013;51.840;8.276;2024-01-25T09:33:56;6.80;1.00
9949;DHT22;5013;51.840;8.276;2024-01-25T09:36:21;6.90;1.00
9949;DHT22;5013;51.840;8.276;2024-01-25T09:38:47;6.90;1.00
9949;DHT22;5013;51.840;8.276;2024-01-25T09:41:13;6.90;1.00
9949;DHT22;5013;51.840;8.276;2024-01-25T09:43:39;6.90;99.90
9949;DHT22;5013;51.840;8.276;2024-01-25T09:46:05;7.00;99.90
9949;DHT22;5013;51.840;8.276;2024-01-25T09:48:32;7.10;99.90
9949;DHT22;5013;51.840;8.276;2024-01-25T09:50:59;7.20;1.00
9949;DHT22;5013;51.840;8.276;2024-01-25T09:53:24;7.20;1.00
9949;DHT22;5013;51.840;8.276;2024-01-25T09:56:17;7.20;1.00
9949;DHT22;5013;51.840;8.276;2024-01-25T09:58:43;7.30;1.00
9949;DHT22;5013;51.840;8.276;2024-01-25T10:01:12;7.30;1.00
9949;DHT22;5013;51.840;8.276;2024-01-25T10:03:41;7.30;99.90
9949;DHT22;5013;51.840;8.276;2024-01-25T10:06:07;7.40;99.90
9949;DHT22;5013;51.840;8.276;2024-01-25T10:08:34;7.40;99.90
9949;DHT22;5013;51.840;8.276;2024-01-25T10:10:59;7.40;1.00
9949;DHT22;5013;51.840;8.276;2024-01-25T10:13:26;7.50;1.00
9949;DHT22;5013;51.840;8.276;2024-01-25T10:15:53;7.60;99.90
9949;DHT22;5013;51.840;8.276;2024-01-25T10:18:20;7.60;1.00
9949;DHT22;5013;51.840;8.276;2024-01-25T10:20:45;7.60;1.00
9949;DHT22;5013;51.840;8.276;2024-01-25T10:23:11;7.70;99.90
9949;DHT22;5013;51.840;8.276;2024-01-25T10:25:37;7.50;1.00
9949;DHT22;5013;51.840;8.276;2024-01-25T10:28:06;7.50;15.60
9949;DHT22;5013;51.840;8.276;2024-01-25T10:30:35;7.60;34.70
9949;DHT22;5013;51.840;8.276;2024-01-25T10:33:01;7.50;1.00
9949;DHT22;5013;51.840;8.276;2024-01-25T10:35:28;7.60;1.00
9949;DHT22;5013;51.840;8.276;2024-01-25T10:37:54;7.70;1.00
9949;DHT22;5013;51.840;8.276;2024-01-25T10:40:21;7.80;99.90
9949;DHT22;5013;51.840;8.276;2024-01-25T10:42:47;7.90;99.90
9949;DHT22;5013;51.840;8.276;2024-01-25T10:45:13;8.10;21.60
9949;DHT22;5013;51.840;8.276;2024-01-25T10:47:39;8.00;1.00
9949;DHT22;5013;51.840;8.276;2024-01-25T10:50:07;8.00;24.70
9949;DHT22;5013;51.840;8.276;2024-01-25T10:52:41;8.00;1.00
9949;DHT22;5013;51.840;8.276;2024-01-25T10:55:08;8.00;1.00
9949;DHT22;5013;51.840;8.276;2024-01-25T10:57:39;7.90;1.00
9949;DHT22;5013;51.840;8.276;2024-01-25T11:00:10;7.90;58.30
9949;DHT22;5013;51.840;8.276;2024-01-25T11:02:36;7.80;99.90
9949;DHT22;5013;51.840;8.276;2024-01-25T11:05:12;7.90;99.90
9949;DHT22;5013;51.840;8.276;2024-01-25T11:07:46;7.80;1.00
9949;DHT22;5013;51.840;8.276;2024-01-25T11:10:17;7.80;99.90
9949;DHT22;5013;51.840;8.276;2024-01-25T11:12:55;7.80;99.90
9949;DHT22;5013;51.840;8.276;2024-01-25T11:15:22;7.70;99.90
9949;DHT22;5013;51.840;8.276;2024-01-25T11:17:55;7.70;1.00
9949;DHT22;5013;51.840;8.276;2024-01-25T11:20:25;7.70;1.00
9949;DHT22;5013;51.840;8.276;2024-01-25T11:23:04;7.70;99.90
9949;DHT22;5013;51.840;8.276;2024-01-25T11:25:32;7.70;1.00
9949;DHT22;5013;51.840;8.276;2024-01-25T11:27:58;7.60;1.00
9949;DHT22;5013;51.840;8.276;2024-01-25T11:30:25;7.70;1.00
9949;DHT22;5013;51.840;8.276;2024-01-25T11:32:51;7.70;99.90
9949;DHT22;5013;51.840;8.276;2024-01-25T11:35:16;7.70;1.00
9949;DHT22;5013;51.840;8.276;2024-01-25T11:37:46;7.80;1.00
9949;DHT22;5013;51.840;8.276;2024-01-25T11:40:13;7.90;1.00
9949;DHT22;5013;51.840;8.276;2024-01-25T11:42:39;8.00;1.00
9949;DHT22;5013;51.840;8.276;2024-01-25T11:45:09;8.20;99.90
9949;DHT22;5013;51.840;8.276;2024-01-25T11:47:35;8.30;1.00
9949;DHT22;5013;51.840;8.276;2024-01-25T11:50:02;8.50;1.00
9949;DHT22;5013;51.840;8.276;2024-01-25T11:52:27;8.50;99.90
9949;DHT22;5013;51.840;8.276;2024-01-25T11:54:53;8.50;1.00
9949;DHT22;5013;51.840;8.276;2024-01-25T11:57:19;8.70;99.90
9949;DHT22;5013;51.840;8.276;2024-01-25T11:59:45;8.60;31.60
9949;DHT22;5013;51.840;8.276;2024-01-25T12:02:14;8.60;1.00
9949;DHT22;5013;51.840;8.276;2024-01-25T12:04:40;8.60;99.90
9949;DHT22;5013;51.840;8.276;2024-01-25T12:07:05;8.60;99.90
9949;DHT22;5013;51.840;8.276;2024-01-25T12:09:31;8.50;99.90
9949;DHT22;5013;51.840;8.276;2024-01-25T12:11:56;8.40;1.00
9949;DHT22;5013;51.840;8.276;2024-01-25T12:14:24;8.40;99.90
9949;DHT22;5013;51.840;8.276;2024-01-25T12:16:50;8.50;1.00
9949;DHT22;5013;51.840;8.276;2024-01-25T12:19:15;8.60;1.00
9949;DHT22;5013;51.840;8.276;2024-01-25T12:21:44;8.70;99.90
9949;DHT22;5013;51.840;8.276;2024-01-25T12:24:10;8.90;99.90
9949;DHT22;5013;51.840;8.276;2024-01-25T12:26:36;9.10;1.00
9949;DHT22;5013;51.840;8.276;2024-01-25T12:29:02;9.00;99.90
9949;DHT22;5013;51.840;8.276;2024-01-25T12:31:28;9.00;1.00
9949;DHT22;5013;51.840;8.276;2024-01-25T12:33:54;8.90;99.90
9949;DHT22;5013;51.840;8.276;2024-01-25T12:36:19;8.90;99.90
9949;DHT22;5013;51.840;8.276;2024-01-25T12:38:45;9.00;1.00
9949;DHT22;5013;51.840;8.276;2024-01-25T12:41:10;9.10;1.00
9949;DHT22;5013;51.840;8.276;2024-01-25T12:43:36;9.20;1.00
9949;DHT22;5013;51.840;8.276;2024-01-25T12:46:02;9.30;99.90
9949;DHT22;5013;51.840;8.276;2024-01-25T12:48:27;9.30;8.50
9949;DHT22;5013;51.840;8.276;2024-01-25T12:50:53;9.20;1.00
9949;DHT22;5013;51.840;8.276;2024-01-25T12:53:19;9.20;99.90
9949;DHT22;5013;51.840;8.276;2024-01-25T12:55:44;9.00;99.90
9949;DHT22;5013;51.840;8.276;2024-01-25T12:58:10;9.00;99.90
9949;DHT22;5013;51.840;8.276;2024-01-25T13:00:35;8.90;99.90
9949;DHT22;5013;51.840;8.276;2024-01-25T13:03:01;8.90;99.90
9949;DHT22;5013;51.840;8.276;2024-01-25T13:05:29;8.90;99.90
9949;DHT22;5013;51.840;8.276;2024-01-25T13:08:01;8.80;1.00
9949;DHT22;5013;51.840;8.276;2024-01-25T13:10:28;8.80;1.00
9949;DHT22;5013;51.840;8.276;2024-01-25T13:12:54;8.80;86.80
9949;DHT22;5013;51.840;8.276;2024-01-25T13:15:19;8.80;1.00
9949;DHT22;5013;51.840;8.276;2024-01-25T13:17:45;8.70;99.90
9949;DHT22;5013;51.840;8.276;2024-01-25T13:20:11;8.80;33.80
9949;DHT22;5013;51.840;8.276;2024-01-25T13:22:37;8.80;1.00
9949;DHT22;5013;51.840;8.276;2024-01-25T13:25:03;8.80;99.90
9949;DHT22;5013;51.840;8.276;2024-01-25T13:27:28;8.80;32.40
9949;DHT22;5013;51.840;8.276;2024-01-25T13:29:55;8.70;56.20
9949;DHT22;5013;51.840;8.276;2024-01-25T13:32:22;8.70;1.00
9949;DHT22;5013;51.840;8.276;2024-01-25T13:34:47;8.70;99.90
9949;DHT22;5013;51.840;8.276;2024-01-25T13:37:13;8.80;1.00
9949;DHT22;5013;51.840;8.276;2024-01-25T13:39:39;8.90;99.90
9949;DHT22;5013;51.840;8.276;2024-01-25T13:42:04;8.90;1.00
9949;DHT22;5013;51.840;8.276;2024-01-25T13:44:30;9.00;1.00
9949;DHT22;5013;51.840;8.276;2024-01-25T13:46:55;9.10;1.00
9949;DHT22;5013;51.840;8.276;2024-01-25T13:49:24;9.10;99.90
9949;DHT22;5013;51.840;8.276;2024-01-25T13:51:50;9.10;99.90
9949;DHT22;5013;51.840;8.276;2024-01-25T13:54:15;9.20;99.90
9949;DHT22;5013;51.840;8.276;2024-01-25T13:56:41;9.10;99.90
9949;DHT22;5013;51.840;8.276;2024-01-25T13:59:06;9.10;99.90
9949;DHT22;5013;51.840;8.276;2024-01-25T14:01:32;9.10;1.00
9949;DHT22;5013;51.840;8.276;2024-01-25T14:03:58;9.00;66.00
9949;DHT22;5013;51.840;8.276;2024-01-25T14:06:24;9.00;99.90
9949;DHT22;5013;51.840;8.276;2024-01-25T14:08:49;9.10;99.90
9949;DHT22;5013;51.840;8.276;2024-01-25T14:11:15;9.20;16.00
9949;DHT22;5013;51.840;8.276;2024-01-25T14:13:41;9.20;1.00
9949;DHT22;5013;51.840;8.276;2024-01-25T14:16:07;9.10;1.00
9949;DHT22;5013;51.840;8.276;2024-01-25T14:18:39;9.00;50.10
9949;DHT22;5013;51.840;8.276;2024-01-25T14:21:05;9.10;1.00
9949;DHT22;5013;51.840;8.276;2024-01-25T14:23:31;8.90;1.00
9949;DHT22;5013;51.840;8.276;2024-01-25T14:25:57;8.90;1.00
9949;DHT22;5013;51.840;8.276;2024-01-25T14:28:22;8.90;13.20
9949;DHT22;5013;51.840;8.276;2024-01-25T14:30:48;8.90;1.00
9949;DHT22;5013;51.840;8.276;2024-01-25T14:33:14;8.80;1.00
9949;DHT22;5013;51.840;8.276;2024-01-25T14:35:39;8.80;1.00
9949;DHT22;5013;51.840;8.276;2024-01-25T14:38:05;8.80;99.90
9949;DHT22;5013;51.840;8.276;2024-01-25T14:40:31;8.80;52.10
9949;DHT22;5013;51.840;8.276;2024-01-25T14:42:56;8.60;99.90
9949;DHT22;5013;51.840;8.276;2024-01-25T14:45:22;8.60;99.90
9949;DHT22;5013;51.840;8.276;2024-01-25T14:47:48;8.60;1.00
9949;DHT22;5013;51.840;8.276;2024-01-25T14:50:13;8.50;1.00
9949;DHT22;5013;51.840;8.276;2024-01-25T14:52:39;8.60;1.00
9949;DHT22;5013;51.840;8.276;2024-01-25T14:55:06;8.60;1.00
9949;DHT22;5013;51.840;8.276;2024-01-25T14:57:31;8.60;99.90
9949;DHT22;5013;51.840;8.276;2024-01-25T14:59:57;8.60;1.00
9949;DHT22;5013;51.840;8.276;2024-01-25T15:02:23;8.60;99.90
9949;DHT22;5013;51.840;8.276;2024-01-25T15:04:48;8.50;1.00
9949;DHT22;5013;51.840;8.276;2024-01-25T15:07:14;8.40;42.20
9949;DHT22;5013;51.840;8.276;2024-01-25T15:09:47;8.40;99.90
9949;DHT22;5013;51.840;8.276;2024-01-25T15:12:13;8.50;99.90
9949;DHT22;5013;51.840;8.276;2024-01-25T15:14:39;8.50;1.00
9949;DHT22;5013;51.840;8.276;2024-01-25T15:17:04;8.40;99.90
9949;DHT22;5013;51.840;8.276;2024-01-25T15:19:30;8.30;99.90
9949;DHT22;5013;51.840;8.276;2024-01-25T15:21:55;8.30;99.90
9949;DHT22;5013;51.840;8.276;2024-01-25T15:24:21;8.40;1.00
9949;DHT22;5013;51.840;8.276;2024-01-25T15:26:47;8.30;99.90
9949;DHT22;5013;51.840;8.276;2024-01-25T15:29:12;8.30;1.00
9949;DHT22;5013;51.840;8.276;2024-01-25T15:31:38;8.20;99.90
9949;DHT22;5013;51.840;8.276;2024-01-25T15:34:03;8.20;1.00
9949;DHT22;5013;51.840;8.276;2024-01-25T15:36:29;8.20;1.00
9949;DHT22;5013;51.840;8.276;2024-01-25T15:38:54;8.20;1.00
9949;DHT22;5013;51.840;8.276;2024-01-25T15:41:20;8.10;1.00
9949;DHT22;5013;51.840;8.276;2024-01-25T15:43:48;8.10;1.00
9949;DHT22;5013;51.840;8.276;2024-01-25T15:46:15;8.00;99.90
9949;DHT22;5013;51.840;8.276;2024-01-25T15:48:41;8.00;99.90
9949;DHT22;5013;51.840;8.276;2024-01-25T15:51:06;8.00;99.90
9949;DHT22;5013;51.840;8.276;2024-01-25T15:53:32;7.90;99.90
9949;DHT22;5013;51.840;8.276;2024-01-25T15:55:58;7.90;99.90
9949;DHT22;5013;51.840;8.276;2024-01-25T15:58:27;7.90;1.00
9949;DHT22;5013;51.840;8.276;2024-01-25T16:00:53;7.80;1.00
9949;DHT22;5013;51.840;8.276;2024-01-25T16:03:18;7.70;1.00
9949;DHT22;5013;51.840;8.276;2024-01-25T16:05:44;7.60;99.90
9949;DHT22;5013;51.840;8.276;2024-01-25T16:08:09;7.60;99.90
9949;DHT22;5013;51.840;8.276;2024-01-25T16:10:35;7.50;1.00
9949;DHT22;5013;51.840;8.276;2024-01-25T16:13:00;7.50;1.00
9949;DHT22;5013;51.840;8.276;2024-01-25T16:15:26;7.50;1.00
9949;DHT22;5013;51.840;8.276;2024-01-25T16:17:53;7.50;99.90